createdAt,value
2022-09-22T00:01:16.935Z,27.65
2022-09-22T00:04:09.286Z,27.81
2022-09-22T00:06:58.558Z,27.85
2022-09-22T00:09:40.966Z,27.75
2022-09-22T00:12:30.892Z,27.79
2022-09-22T00:15:13.393Z,27.80
2022-09-22T00:17:54.942Z,27.82
2022-09-22T00:20:40.433Z,27.84
2022-09-22T00:23:28.865Z,27.68
2022-09-22T00:26:23.671Z,27.63
2022-09-22T00:29:06.959Z,27.57
2022-09-22T00:31:55.942Z,27.70
2022-09-22T00:34:45.016Z,27.69
2022-09-22T00:37:27.257Z,27.57
2022-09-22T00:40:17.921Z,27.74
2022-09-22T00:43:26.946Z,27.83
2022-09-22T00:46:20.931Z,27.73
2022-09-22T00:49:13.236Z,27.76
2022-09-22T00:51:55.891Z,27.84
2022-09-22T00:54:39.522Z,27.77
2022-09-22T00:57:34.968Z,27.63
2022-09-22T01:00:24.329Z,27.60
2022-09-22T01:03:08.960Z,27.71
2022-09-22T01:05:54.215Z,27.73
2022-09-22T01:08:44.961Z,27.52
2022-09-22T01:11:29.023Z,27.77
2022-09-22T01:14:59.957Z,27.70
2022-09-22T01:17:54.277Z,27.79
2022-09-22T01:20:48.952Z,27.84
2022-09-22T01:23:57.957Z,27.80
2022-09-22T01:27:14.935Z,27.86
2022-09-22T01:30:12.013Z,27.97
2022-09-22T01:33:19.989Z,27.77
2022-09-22T01:36:10.920Z,27.96
2022-09-22T01:39:19.937Z,27.97
2022-09-22T01:42:14.835Z,27.90
2022-09-22T01:45:08.241Z,27.89
2022-09-22T01:48:04.937Z,28.10
2022-09-22T01:51:26.948Z,28.24
2022-09-22T01:54:42.334Z,28.24
2022-09-22T01:57:37.953Z,28.09
2022-09-22T02:00:20.854Z,28.33
2022-09-22T02:03:20.960Z,28.45
2022-09-22T02:06:12.201Z,28.58
2022-09-22T02:09:16.997Z,28.70
2022-09-22T02:12:07.337Z,28.72
2022-09-22T02:14:49.936Z,28.66
2022-09-22T02:17:35.380Z,28.40
2022-09-22T02:20:24.932Z,28.68
2022-09-22T02:23:13.965Z,28.88
2022-09-22T02:26:03.949Z,29.05
2022-09-22T02:28:53.232Z,29.05
2022-09-22T02:31:39.020Z,28.48
2022-09-22T02:34:27.228Z,28.64
2022-09-22T02:37:21.955Z,28.81
2022-09-22T02:40:47.097Z,28.89
2022-09-22T02:43:56.245Z,29.26
2022-09-22T02:46:56.945Z,29.08
2022-09-22T02:49:45.952Z,29.16
2022-09-22T02:52:37.938Z,29.44
2022-09-22T02:55:26.963Z,29.58
2022-09-22T02:58:09.202Z,29.75
2022-09-22T03:00:57.955Z,29.52
2022-09-22T03:03:40.244Z,29.77
2022-09-22T03:06:28.953Z,29.50
2022-09-22T03:09:11.281Z,29.71
2022-09-22T03:11:59.963Z,29.98
2022-09-22T03:14:42.423Z,29.89
2022-09-22T03:17:30.946Z,29.60
2022-09-22T03:20:14.195Z,30.10
2022-09-22T03:23:02.956Z,29.50
2022-09-22T03:25:45.236Z,29.77
2022-09-22T03:28:33.954Z,30.12
2022-09-22T03:31:16.229Z,30.24
2022-09-22T03:34:04.953Z,30.48
2022-09-22T03:36:53.930Z,30.41
2022-09-22T03:39:42.938Z,30.52
2022-09-22T03:42:31.948Z,30.43
2022-09-22T03:45:14.229Z,30.02
2022-09-22T03:48:02.951Z,30.69
2022-09-22T03:50:45.104Z,30.83
2022-09-22T03:53:33.979Z,30.84
2022-09-22T03:56:17.752Z,31.06
2022-09-22T03:59:06.938Z,31.22
2022-09-22T04:01:49.274Z,31.00
2022-09-22T04:04:37.933Z,31.23
2022-09-22T04:07:26.952Z,31.48
2022-09-22T04:10:15.843Z,31.70
2022-09-22T04:13:05.314Z,31.85
2022-09-22T04:15:46.864Z,31.81
2022-09-22T04:18:30.579Z,31.90
2022-09-22T04:21:20.862Z,31.41
2022-09-22T04:24:11.970Z,32.29
2022-09-22T04:27:18.682Z,32.56
2022-09-22T04:30:10.837Z,32.76
2022-09-22T04:32:59.894Z,33.03
2022-09-22T04:35:48.860Z,33.30
2022-09-22T04:38:37.291Z,33.35
2022-09-22T04:41:18.937Z,33.44
2022-09-22T04:44:07.247Z,33.48
2022-09-22T04:46:54.017Z,33.77
2022-09-22T04:49:43.223Z,33.68
2022-09-22T04:52:24.955Z,33.73
2022-09-22T04:55:14.392Z,34.14
2022-09-22T04:58:00.873Z,34.02
2022-09-22T05:00:49.962Z,33.27
2022-09-22T05:03:32.505Z,34.32
2022-09-22T05:06:20.966Z,34.26
2022-09-22T05:09:04.235Z,34.20
2022-09-22T05:11:52.949Z,35.18
2022-09-22T05:14:56.812Z,34.14
2022-09-22T05:17:45.992Z,34.05
2022-09-22T05:20:30.229Z,33.61
2022-09-22T05:23:18.986Z,34.17
2022-09-22T05:26:02.079Z,34.99
2022-09-22T05:28:50.980Z,35.34
2022-09-22T05:31:33.702Z,35.95
2022-09-22T05:34:22.831Z,35.82
2022-09-22T05:37:05.425Z,35.64
2022-09-22T05:39:53.950Z,35.90
2022-09-22T05:42:36.413Z,36.26
2022-09-22T05:45:26.010Z,35.61
2022-09-22T05:48:31.014Z,36.01
2022-09-22T05:51:19.949Z,36.24
2022-09-22T05:54:02.222Z,36.05
2022-09-22T05:56:50.861Z,35.77
2022-09-22T05:59:39.836Z,35.94
2022-09-22T06:02:26.091Z,35.77
2022-09-22T06:05:18.226Z,35.97
2022-09-22T06:08:07.401Z,35.31
2022-09-22T06:10:58.854Z,35.68
2022-09-22T06:13:41.127Z,35.57
2022-09-22T06:16:29.991Z,35.97
2022-09-22T06:19:18.841Z,35.96
2022-09-22T06:22:07.929Z,35.93
2022-09-22T06:24:50.156Z,35.51
2022-09-22T06:27:38.929Z,35.83
2022-09-22T06:30:27.228Z,35.55
2022-09-22T06:33:09.856Z,35.54
2022-09-22T06:35:52.192Z,35.57
2022-09-22T06:38:40.947Z,35.72
2022-09-22T06:41:29.841Z,36.13
2022-09-22T06:44:19.861Z,36.31
2022-09-22T06:47:12.535Z,35.83
2022-09-22T06:49:54.864Z,35.92
2022-09-22T06:52:40.649Z,35.64
2022-09-22T06:55:29.959Z,35.94
2022-09-22T06:58:12.810Z,35.98
2022-09-22T07:01:04.223Z,35.95
2022-09-22T07:03:54.969Z,36.02
2022-09-22T07:06:44.853Z,36.35
2022-09-22T07:09:33.873Z,35.98
2022-09-22T07:12:16.433Z,35.76
2022-09-22T07:15:05.871Z,35.79
2022-09-22T07:17:49.164Z,36.08
2022-09-22T07:20:37.921Z,36.00
2022-09-22T07:23:22.158Z,35.85
2022-09-22T07:26:14.924Z,35.98
2022-09-22T07:29:01.247Z,35.86
2022-09-22T07:31:51.077Z,36.10
2022-09-22T07:34:34.254Z,36.16
2022-09-22T07:37:23.851Z,36.24
2022-09-22T07:40:06.233Z,36.21
2022-09-22T07:42:57.957Z,35.54
2022-09-22T07:45:40.229Z,36.00
2022-09-22T07:48:46.890Z,35.62
2022-09-22T07:51:35.072Z,35.70
2022-09-22T07:54:23.864Z,35.55
2022-09-22T07:57:09.746Z,35.65
2022-09-22T07:59:58.847Z,35.45
2022-09-22T08:02:47.219Z,35.51
2022-09-22T08:05:37.926Z,35.32
2022-09-22T08:08:26.951Z,34.79
2022-09-22T08:11:22.852Z,35.45
2022-09-22T08:14:21.871Z,35.59
2022-09-22T08:17:13.355Z,35.86
2022-09-22T08:19:54.961Z,36.02
2022-09-22T08:22:37.381Z,35.70
2022-09-22T08:25:25.932Z,35.69
2022-09-22T08:28:20.811Z,35.77
2022-09-22T08:31:10.942Z,35.89
2022-09-22T08:33:56.398Z,35.71
2022-09-22T08:36:45.851Z,35.65
2022-09-22T08:39:28.380Z,35.55
2022-09-22T08:42:16.877Z,35.85
2022-09-22T08:45:29.251Z,35.74
2022-09-22T08:48:45.998Z,35.89
2022-09-22T08:51:56.161Z,35.44
2022-09-22T08:54:45.921Z,35.09
2022-09-22T08:57:43.210Z,35.64
2022-09-22T09:00:33.865Z,35.74
2022-09-22T09:03:50.035Z,35.90
2022-09-22T09:07:05.150Z,35.76
2022-09-22T09:10:22.848Z,35.47
2022-09-22T09:13:28.139Z,35.54
2022-09-22T09:16:37.789Z,35.18
2022-09-22T09:19:56.869Z,35.23
2022-09-22T09:22:54.857Z,35.04
2022-09-22T09:25:51.951Z,35.02
2022-09-22T09:28:47.248Z,35.05
2022-09-22T09:31:36.018Z,35.19
2022-09-22T09:34:27.851Z,34.85
2022-09-22T09:37:27.939Z,34.86
2022-09-22T09:40:24.924Z,34.90
2022-09-22T09:43:17.921Z,34.70
2022-09-22T09:46:26.974Z,34.52
2022-09-22T09:49:31.012Z,34.55
2022-09-22T09:52:21.261Z,34.76
2022-09-22T09:55:03.990Z,34.59
2022-09-22T09:58:37.017Z,34.87
2022-09-22T10:01:22.931Z,35.03
2022-09-22T10:04:11.991Z,34.96
2022-09-22T10:06:55.246Z,35.05
2022-09-22T10:09:44.304Z,34.96
2022-09-22T10:12:32.343Z,35.24
2022-09-22T10:15:32.066Z,34.94
2022-09-22T10:18:32.208Z,35.02
2022-09-22T10:21:24.943Z,34.93
2022-09-22T10:24:14.995Z,35.05
2022-09-22T10:26:59.486Z,35.11
2022-09-22T10:29:49.848Z,35.27
2022-09-22T10:32:32.160Z,34.96
2022-09-22T10:35:43.925Z,35.02
2022-09-22T10:38:30.496Z,35.10
2022-09-22T10:41:20.929Z,34.96
2022-09-22T10:44:35.015Z,34.97
2022-09-22T10:47:50.014Z,34.92
2022-09-22T10:51:28.310Z,35.12
2022-09-22T10:54:37.926Z,35.07
2022-09-22T10:57:39.335Z,34.81
2022-09-22T11:00:35.253Z,34.63
2022-09-22T11:03:56.887Z,34.61
2022-09-22T11:07:35.537Z,34.63
2022-09-22T11:11:05.935Z,34.28
2022-09-22T11:14:03.192Z,34.28
2022-09-22T11:17:13.863Z,34.32
2022-09-22T11:20:11.930Z,34.22
2022-09-22T11:23:32.938Z,34.07
2022-09-22T11:26:54.008Z,34.05
2022-09-22T11:30:11.469Z,34.13
2022-09-22T11:33:10.932Z,33.97
2022-09-22T11:36:16.859Z,33.54
2022-09-22T11:39:28.372Z,33.94
2022-09-22T11:42:27.858Z,33.65
2022-09-22T11:45:36.193Z,33.42
2022-09-22T11:48:40.016Z,33.16
2022-09-22T11:51:46.210Z,33.52
2022-09-22T11:54:37.950Z,33.52
2022-09-22T11:57:32.848Z,33.07
2022-09-22T12:00:27.832Z,33.01
2022-09-22T12:03:19.270Z,33.02
2022-09-22T12:06:20.844Z,33.04
2022-09-22T12:09:13.474Z,32.88
2022-09-22T12:11:55.850Z,33.08
2022-09-22T12:14:45.271Z,33.16
2022-09-22T12:17:34.930Z,32.69
2022-09-22T12:20:39.663Z,32.82
2022-09-22T12:23:32.938Z,32.84
2022-09-22T12:26:26.038Z,33.08
2022-09-22T12:29:16.928Z,33.05
2022-09-22T12:32:00.838Z,32.45
2022-09-22T12:34:53.866Z,32.17
2022-09-22T12:37:46.930Z,31.71
2022-09-22T12:40:42.599Z,31.68
2022-09-22T12:43:32.886Z,31.53
2022-09-22T12:46:34.366Z,31.32
2022-09-22T12:49:30.895Z,31.23
2022-09-22T12:52:45.240Z,31.13
2022-09-22T12:55:35.951Z,31.13
2022-09-22T12:58:33.912Z,31.00
2022-09-22T13:01:33.899Z,31.07
2022-09-22T13:04:31.939Z,30.74
2022-09-22T13:07:49.894Z,30.90
2022-09-22T13:10:38.934Z,31.03
2022-09-22T13:13:44.714Z,31.04
2022-09-22T13:16:33.910Z,31.15
2022-09-22T13:19:24.415Z,31.08
2022-09-22T13:22:25.948Z,31.14
2022-09-22T13:25:37.253Z,31.02
2022-09-22T13:28:34.085Z,30.99
2022-09-22T13:31:26.216Z,31.17
2022-09-22T13:34:23.934Z,31.18
2022-09-22T13:37:20.227Z,31.09
2022-09-22T13:40:02.968Z,30.84
2022-09-22T13:42:53.453Z,30.77
2022-09-22T13:45:38.658Z,30.65
2022-09-22T13:48:28.908Z,30.83
2022-09-22T13:51:16.003Z,30.86
2022-09-22T13:54:06.002Z,30.57
2022-09-22T13:56:48.259Z,30.50
2022-09-22T13:59:50.995Z,30.76
2022-09-22T14:02:35.344Z,30.62
2022-09-22T14:05:29.916Z,30.79
2022-09-22T14:08:17.099Z,30.49
2022-09-22T14:11:09.872Z,30.45
2022-09-22T14:14:01.753Z,30.65
2022-09-22T14:16:57.023Z,30.58
2022-09-22T14:19:45.516Z,30.68
2022-09-22T14:22:36.993Z,30.45
2022-09-22T14:25:30.896Z,30.68
2022-09-22T14:28:29.840Z,30.57
2022-09-22T14:31:23.373Z,30.57
2022-09-22T14:34:05.961Z,30.37
2022-09-22T14:36:58.231Z,30.29
2022-09-22T14:39:42.937Z,30.37
2022-09-22T14:42:30.704Z,30.52
2022-09-22T14:45:26.038Z,30.46
2022-09-22T14:48:40.901Z,30.45
2022-09-22T14:51:38.257Z,30.42
2022-09-22T14:54:20.712Z,30.35
2022-09-22T14:57:13.954Z,30.14
2022-09-22T15:00:24.385Z,29.91
2022-09-22T15:03:06.891Z,30.17
2022-09-22T15:05:57.945Z,30.11
2022-09-22T15:08:40.137Z,30.00
2022-09-22T15:11:28.767Z,30.16
2022-09-22T15:14:58.800Z,30.10
2022-09-22T15:18:06.794Z,29.98
2022-09-22T15:21:06.647Z,30.02
2022-09-22T15:23:56.754Z,30.12
2022-09-22T15:26:46.717Z,30.01
2022-09-22T15:29:41.613Z,29.95
2022-09-22T15:32:30.781Z,30.03
2022-09-22T15:35:20.703Z,29.93
2022-09-22T15:38:09.721Z,30.00
2022-09-22T15:40:52.082Z,29.94
2022-09-22T15:43:40.927Z,30.00
2022-09-22T15:46:34.769Z,29.95
2022-09-22T15:49:29.892Z,29.91
2022-09-22T15:52:18.883Z,29.90
2022-09-22T15:55:01.656Z,29.95
2022-09-22T15:57:50.985Z,29.90
2022-09-22T16:00:33.292Z,29.89
2022-09-22T16:03:48.950Z,29.86
2022-09-22T16:06:34.021Z,29.74
2022-09-22T16:09:29.932Z,29.73
2022-09-22T16:12:23.549Z,29.81
2022-09-22T16:15:06.949Z,29.73
2022-09-22T16:17:49.293Z,29.73
2022-09-22T16:20:37.960Z,29.59
2022-09-22T16:23:29.012Z,29.58
2022-09-22T16:26:12.283Z,29.54
2022-09-22T16:29:01.025Z,29.48
2022-09-22T16:31:46.365Z,29.47
2022-09-22T16:34:35.041Z,29.55
2022-09-22T16:37:24.155Z,29.25
2022-09-22T16:40:14.380Z,29.55
2022-09-22T16:42:57.114Z,29.53
2022-09-22T16:46:04.031Z,29.48
2022-09-22T16:48:46.376Z,29.51
2022-09-22T16:51:35.894Z,29.50
2022-09-22T16:54:20.931Z,29.50
2022-09-22T16:57:11.374Z,29.45
2022-09-22T16:59:53.743Z,29.50
2022-09-22T17:02:43.994Z,29.48
2022-09-22T17:05:34.547Z,29.51
2022-09-22T17:08:19.413Z,29.52
2022-09-22T17:11:08.025Z,29.45
2022-09-22T17:13:52.047Z,29.52
2022-09-22T17:16:45.965Z,29.44
2022-09-22T17:19:35.930Z,29.43
2022-09-22T17:22:25.984Z,29.38
2022-09-22T17:25:15.986Z,29.39
2022-09-22T17:27:59.140Z,29.29
2022-09-22T17:30:54.922Z,29.33
2022-09-22T17:33:53.443Z,29.38
2022-09-22T17:36:37.304Z,29.45
2022-09-22T17:39:25.943Z,29.43
2022-09-22T17:42:08.413Z,29.33
2022-09-22T17:44:56.956Z,29.28
2022-09-22T17:47:57.866Z,29.16
2022-09-22T17:51:04.884Z,29.15
2022-09-22T17:54:11.952Z,29.07
2022-09-22T17:56:54.196Z,29.14
2022-09-22T17:59:43.951Z,29.04
2022-09-22T18:02:28.392Z,29.11
2022-09-22T18:05:27.144Z,28.98
2022-09-22T18:08:18.287Z,29.22
2022-09-22T18:11:00.841Z,29.13
2022-09-22T18:13:51.668Z,29.13
2022-09-22T18:16:40.916Z,29.14
2022-09-22T18:19:29.828Z,29.16
2022-09-22T18:22:15.332Z,29.16
2022-09-22T18:25:04.913Z,29.18
2022-09-22T18:27:49.299Z,29.18
2022-09-22T18:30:38.946Z,29.12
2022-09-22T18:33:27.830Z,29.09
2022-09-22T18:36:17.365Z,29.15
2022-09-22T18:39:00.204Z,28.87
2022-09-22T18:41:48.980Z,28.94
2022-09-22T18:44:33.491Z,28.98
2022-09-22T18:47:25.908Z,29.05
2022-09-22T18:50:14.818Z,28.96
2022-09-22T18:52:57.783Z,29.03
2022-09-22T18:55:46.889Z,29.05
2022-09-22T18:58:29.077Z,29.08
2022-09-22T19:01:17.890Z,28.99
2022-09-22T19:04:06.886Z,29.05
2022-09-22T19:07:13.914Z,29.03
2022-09-22T19:09:56.102Z,29.06
2022-09-22T19:12:44.902Z,29.01
2022-09-22T19:15:27.506Z,29.00
2022-09-22T19:18:17.924Z,29.00
2022-09-22T19:21:14.284Z,29.00
2022-09-22T19:23:57.257Z,29.11
2022-09-22T19:26:49.908Z,29.11
2022-09-22T19:29:32.335Z,28.85
2022-09-22T19:32:20.967Z,28.64
2022-09-22T19:35:03.213Z,28.68
2022-09-22T19:37:52.254Z,28.77
2022-09-22T19:40:35.160Z,28.71
2022-09-22T19:43:23.927Z,28.58
2022-09-22T19:46:06.419Z,28.18
2022-09-22T19:48:55.910Z,28.25
2022-09-22T19:51:38.429Z,28.24
2022-09-22T19:54:28.903Z,28.31
2022-09-22T19:57:11.321Z,28.45
2022-09-22T19:59:59.909Z,28.29
2022-09-22T20:02:52.952Z,28.30
2022-09-22T20:05:44.819Z,28.39
2022-09-22T20:08:34.819Z,28.09
2022-09-22T20:11:26.584Z,28.26
2022-09-22T20:14:32.907Z,28.18
2022-09-22T20:17:21.208Z,28.33
2022-09-22T20:20:04.154Z,28.06
2022-09-22T20:22:54.827Z,28.10
2022-09-22T20:25:46.918Z,28.10
2022-09-22T20:28:28.762Z,28.05
2022-09-22T20:31:17.960Z,27.85
2022-09-22T20:34:00.217Z,28.08
2022-09-22T20:36:50.826Z,27.91
2022-09-22T20:39:40.217Z,28.19
2022-09-22T20:42:22.361Z,28.09
2022-09-22T20:45:10.916Z,28.27
2022-09-22T20:47:59.789Z,28.24
2022-09-22T20:50:48.814Z,28.03
2022-09-22T20:53:31.065Z,28.15
2022-09-22T20:56:19.908Z,28.23
2022-09-22T20:59:02.102Z,28.21
2022-09-22T21:01:50.956Z,28.37
2022-09-22T21:04:33.233Z,28.19
2022-09-22T21:07:21.811Z,28.30
2022-09-22T21:10:28.813Z,28.22
2022-09-22T21:13:10.770Z,28.35
2022-09-22T21:15:52.956Z,28.17
2022-09-22T21:18:35.679Z,28.21
2022-09-22T21:21:24.846Z,28.23
2022-09-22T21:24:08.216Z,28.18
2022-09-22T21:26:56.886Z,28.22
2022-09-22T21:29:52.771Z,28.19
2022-09-22T21:32:40.895Z,28.28
2022-09-22T21:35:23.110Z,28.24
2022-09-22T21:38:10.892Z,28.24
2022-09-22T21:40:53.167Z,28.21
2022-09-22T21:43:41.908Z,28.30
2022-09-22T21:46:32.122Z,28.23
2022-09-22T21:49:20.918Z,28.12
2022-09-22T21:52:03.224Z,28.27
2022-09-22T21:54:51.817Z,28.28
2022-09-22T21:57:40.899Z,28.30
2022-09-22T22:00:50.741Z,28.37
2022-09-22T22:03:37.940Z,28.42
2022-09-22T22:06:31.928Z,28.35
2022-09-22T22:09:26.819Z,28.35
2022-09-22T22:12:15.173Z,28.36
2022-09-22T22:14:56.813Z,28.39
2022-09-22T22:17:45.184Z,28.43
2022-09-22T22:20:27.979Z,28.38
2022-09-22T22:23:10.455Z,28.35
2022-09-22T22:26:00.890Z,28.28
2022-09-22T22:28:43.853Z,28.34
2022-09-22T22:31:36.887Z,28.30
2022-09-22T22:34:22.008Z,28.33
2022-09-22T22:37:16.890Z,28.34
2022-09-22T22:39:59.121Z,28.38
2022-09-22T22:42:47.893Z,28.33
2022-09-22T22:45:30.078Z,28.37
2022-09-22T22:48:18.813Z,28.39
2022-09-22T22:51:07.941Z,28.27
2022-09-22T22:53:50.182Z,28.28
2022-09-22T22:56:41.760Z,28.31
2022-09-22T22:59:31.817Z,28.31
2022-09-22T23:02:26.951Z,28.37
2022-09-22T23:05:09.627Z,28.35
2022-09-22T23:07:58.917Z,28.41
2022-09-22T23:10:41.100Z,28.33
2022-09-22T23:13:30.922Z,28.31
2022-09-22T23:16:15.103Z,28.28
2022-09-22T23:19:05.834Z,28.25
2022-09-22T23:21:54.957Z,28.28
2022-09-22T23:24:37.169Z,28.30
2022-09-22T23:27:25.903Z,28.27
2022-09-22T23:30:14.812Z,28.27
2022-09-22T23:33:04.793Z,28.26
2022-09-22T23:35:53.882Z,28.22
2022-09-22T23:38:37.167Z,28.28
2022-09-22T23:41:26.959Z,28.28
2022-09-22T23:44:15.201Z,28.40
2022-09-22T23:46:57.241Z,28.33
2022-09-22T23:49:45.215Z,28.31
2022-09-22T23:52:26.911Z,28.31
2022-09-22T23:55:16.175Z,28.26
2022-09-22T23:57:57.914Z,28.26
